createdAt,value
2022-12-20T00:04:59.478Z,0.54
2022-12-20T00:10:02.839Z,0.58
2022-12-20T00:15:06.839Z,0.62
2022-12-20T00:20:10.861Z,0.64
2022-12-20T00:25:14.868Z,0.68
2022-12-20T00:30:18.593Z,0.71
2022-12-20T00:35:22.045Z,0.73
2022-12-20T00:40:25.432Z,0.76
2022-12-20T00:45:28.686Z,0.78
2022-12-20T00:50:32.161Z,0.81
2022-12-20T00:55:35.425Z,0.85
2022-12-20T01:00:40.080Z,0.90
2022-12-20T01:05:57.895Z,0.95
2022-12-20T01:11:04.814Z,0.98
2022-12-20T01:16:11.087Z,1.01
2022-12-20T01:21:16.626Z,1.04
2022-12-20T01:26:22.663Z,1.06
2022-12-20T01:31:27.286Z,1.10
2022-12-20T01:36:34.408Z,1.15
2022-12-20T01:41:38.461Z,1.18
2022-12-20T01:46:41.811Z,1.22
2022-12-20T01:51:53.451Z,1.23
2022-12-20T01:57:07.413Z,1.25
2022-12-20T02:02:13.376Z,1.25
2022-12-20T02:07:29.869Z,1.27
2022-12-20T02:12:46.106Z,1.28
2022-12-20T02:17:58.092Z,1.30
2022-12-20T02:23:22.511Z,1.34
2022-12-20T02:29:00.767Z,1.37
2022-12-20T02:34:06.073Z,1.38
2022-12-20T02:39:15.661Z,1.38
2022-12-20T02:44:43.068Z,1.39
2022-12-20T02:49:47.859Z,1.40
2022-12-20T02:54:51.213Z,1.42
2022-12-20T03:00:09.022Z,1.44
2022-12-20T03:05:12.950Z,1.46
2022-12-20T03:10:18.190Z,1.48
2022-12-20T03:15:21.531Z,1.50
2022-12-20T03:20:24.983Z,1.53
2022-12-20T03:25:29.033Z,1.58
2022-12-20T03:30:32.377Z,1.62
2022-12-20T03:35:35.886Z,1.65
2022-12-20T03:40:39.174Z,1.67
2022-12-20T03:45:42.729Z,1.68
2022-12-20T03:50:46.106Z,1.67
2022-12-20T03:55:49.428Z,1.67
2022-12-20T04:00:52.776Z,1.68
2022-12-20T04:05:56.040Z,1.68
2022-12-20T04:11:17.929Z,1.68
2022-12-20T04:16:25.923Z,1.70
2022-12-20T04:21:34.919Z,1.70
2022-12-20T04:26:38.232Z,1.71
2022-12-20T04:31:42.630Z,1.73
2022-12-20T04:36:46.192Z,1.74
2022-12-20T04:41:49.611Z,1.76
2022-12-20T04:46:53.335Z,1.77
2022-12-20T04:52:16.622Z,1.78
2022-12-20T04:57:20.022Z,1.80
2022-12-20T05:02:24.557Z,1.81
2022-12-20T05:07:28.112Z,1.82
2022-12-20T05:12:31.513Z,1.83
2022-12-20T05:17:35.703Z,1.83
2022-12-20T05:23:17.520Z,1.84
2022-12-20T05:28:20.735Z,1.85
2022-12-20T05:33:29.017Z,1.84
2022-12-20T05:38:37.426Z,1.83
2022-12-20T05:43:40.714Z,1.82
2022-12-20T05:48:44.076Z,1.81
2022-12-20T05:53:47.587Z,1.83
2022-12-20T05:58:50.846Z,1.84
2022-12-20T06:03:54.244Z,1.84
2022-12-20T06:08:57.798Z,1.83
2022-12-20T06:14:07.683Z,1.82
2022-12-20T06:19:16.050Z,1.82
2022-12-20T06:24:25.708Z,1.81
2022-12-20T06:29:30.071Z,1.82
2022-12-20T06:34:33.408Z,1.82
2022-12-20T06:39:36.799Z,1.83
2022-12-20T06:44:40.117Z,1.84
2022-12-20T06:49:43.437Z,1.85
2022-12-20T06:54:46.752Z,1.88
2022-12-20T06:59:50.141Z,1.91
2022-12-20T07:04:53.730Z,1.94
2022-12-20T07:09:57.381Z,1.96
2022-12-20T07:15:00.641Z,1.98
2022-12-20T07:20:10.992Z,2.01
2022-12-20T07:25:16.645Z,2.04
2022-12-20T07:30:23.854Z,2.08
2022-12-20T07:35:29.692Z,2.14
2022-12-20T07:40:33.056Z,2.18
2022-12-20T07:45:37.977Z,2.24
2022-12-20T07:50:42.345Z,2.29
2022-12-20T07:55:46.277Z,2.33
2022-12-20T08:00:50.174Z,2.36
2022-12-20T08:05:58.903Z,2.41
2022-12-20T08:11:04.248Z,2.46
2022-12-20T08:16:08.467Z,2.50
2022-12-20T08:21:13.478Z,2.55
2022-12-20T08:26:18.144Z,2.59
2022-12-20T08:31:23.561Z,2.63
2022-12-20T08:36:28.392Z,2.67
2022-12-20T08:41:32.703Z,2.68
2022-12-20T08:46:37.475Z,2.67
2022-12-20T08:51:40.949Z,2.67
2022-12-20T08:56:45.042Z,2.68
2022-12-20T09:01:51.265Z,2.71
2022-12-20T09:06:54.678Z,2.73
2022-12-20T09:11:58.108Z,2.73
2022-12-20T09:17:01.447Z,2.77
2022-12-20T09:22:09.040Z,2.88
2022-12-20T09:27:12.452Z,3.02
2022-12-20T09:32:16.844Z,3.14
2022-12-20T09:37:20.270Z,3.17
2022-12-20T09:42:29.934Z,3.11
2022-12-20T09:47:36.750Z,3.07
2022-12-20T09:52:53.194Z,3.07
2022-12-20T09:58:22.268Z,3.06
2022-12-20T10:03:33.242Z,3.02
2022-12-20T10:09:02.338Z,3.00
2022-12-20T10:14:27.642Z,3.01
2022-12-20T10:19:37.367Z,3.08
2022-12-20T10:25:00.591Z,3.12
2022-12-20T10:30:13.953Z,3.23
2022-12-20T10:35:29.360Z,3.41
2022-12-20T10:41:19.642Z,3.59
2022-12-20T10:46:11.374Z,3.75
2022-12-20T10:51:21.577Z,3.89
2022-12-20T10:56:36.650Z,4.07
2022-12-20T11:01:45.658Z,4.25
2022-12-20T11:06:49.251Z,4.38
2022-12-20T11:12:01.013Z,4.40
2022-12-20T11:17:25.731Z,4.31
2022-12-20T11:22:43.332Z,4.13
2022-12-20T11:28:00.274Z,3.99
2022-12-20T11:33:34.357Z,3.86
2022-12-20T11:38:46.946Z,3.85
2022-12-20T11:44:24.546Z,3.84
2022-12-20T11:49:55.383Z,3.79
2022-12-20T11:55:25.952Z,3.65
2022-12-20T12:00:30.355Z,3.51
2022-12-20T12:05:51.601Z,3.40
2022-12-20T12:11:04.390Z,3.31
2022-12-20T12:16:26.288Z,3.28
2022-12-20T12:21:37.819Z,3.28
2022-12-20T12:26:42.381Z,3.32
2022-12-20T12:31:56.035Z,3.37
2022-12-20T12:37:02.634Z,3.37
2022-12-20T12:42:33.969Z,3.35
2022-12-20T12:47:46.119Z,3.33
2022-12-20T12:52:53.796Z,3.34
2022-12-20T12:57:58.448Z,3.33
2022-12-20T13:03:17.052Z,3.30
2022-12-20T13:08:40.394Z,3.27
2022-12-20T13:13:43.744Z,3.22
2022-12-20T13:19:07.892Z,3.20
2022-12-20T13:24:36.306Z,3.19
2022-12-20T13:29:54.587Z,3.19
2022-12-20T13:34:58.531Z,3.18
2022-12-20T13:40:19.868Z,3.15
2022-12-20T13:45:24.107Z,3.12
2022-12-20T13:50:40.541Z,3.09
2022-12-20T13:55:44.588Z,3.03
2022-12-20T14:00:49.920Z,3.00
2022-12-20T14:06:03.594Z,2.94
2022-12-20T14:11:27.319Z,2.89
2022-12-20T14:16:33.009Z,2.85
2022-12-20T14:21:40.495Z,2.81
2022-12-20T14:26:51.281Z,2.79
2022-12-20T14:31:54.691Z,2.78
2022-12-20T14:37:32.376Z,2.77
2022-12-20T14:42:40.573Z,2.74
2022-12-20T14:48:12.097Z,2.72
2022-12-20T14:53:22.773Z,2.71
2022-12-20T14:58:30.306Z,2.69
2022-12-20T15:03:34.012Z,2.65
2022-12-20T15:08:38.301Z,2.60
2022-12-20T15:13:47.279Z,2.58
2022-12-20T15:18:56.257Z,2.60
2022-12-20T15:24:08.383Z,2.60
2022-12-20T15:29:29.976Z,2.59
2022-12-20T15:34:36.500Z,2.57
2022-12-20T15:39:40.009Z,2.56
2022-12-20T15:44:44.121Z,2.55
2022-12-20T15:49:50.465Z,2.55
2022-12-20T15:54:54.355Z,2.55
2022-12-20T16:00:00.317Z,2.59
2022-12-20T16:05:05.376Z,2.63
2022-12-20T16:10:14.109Z,2.68
2022-12-20T16:15:22.933Z,2.73
2022-12-20T16:20:27.875Z,2.76
2022-12-20T16:25:33.862Z,2.79
2022-12-20T16:30:37.429Z,2.81
2022-12-20T16:35:40.714Z,2.84
2022-12-20T16:40:44.299Z,2.86
2022-12-20T16:45:47.539Z,2.89
2022-12-20T16:50:51.860Z,2.91
2022-12-20T16:55:55.591Z,2.92
2022-12-20T17:00:59.601Z,2.93
2022-12-20T17:06:03.126Z,2.95
2022-12-20T17:11:18.680Z,2.96
2022-12-20T17:16:23.025Z,3.00
2022-12-20T17:27:00.594Z,3.07
2022-12-20T17:32:21.482Z,3.07
2022-12-20T17:37:25.269Z,3.06
2022-12-20T17:42:31.536Z,3.07
2022-12-20T17:47:36.032Z,3.05
2022-12-20T17:52:39.838Z,3.03
2022-12-20T17:57:43.234Z,3.00
2022-12-20T18:02:46.769Z,3.00
2022-12-20T18:07:55.311Z,2.99
2022-12-20T18:12:58.650Z,2.99
2022-12-20T18:18:01.953Z,3.01
2022-12-20T18:23:05.241Z,3.02
2022-12-20T18:28:08.600Z,3.02
2022-12-20T18:33:12.712Z,3.01
2022-12-20T18:38:16.853Z,3.02
2022-12-20T18:43:20.229Z,3.04
2022-12-20T18:48:25.439Z,3.05
2022-12-20T18:53:32.701Z,3.07
2022-12-20T18:58:36.635Z,3.08
2022-12-20T19:03:40.139Z,3.10
2022-12-20T19:08:43.745Z,3.10
2022-12-20T19:13:47.804Z,3.10
2022-12-20T19:18:51.323Z,3.10
2022-12-20T19:23:58.024Z,3.10
2022-12-20T19:29:01.845Z,3.11
2022-12-20T19:34:08.776Z,3.11
2022-12-20T19:39:20.801Z,3.10
2022-12-20T19:44:24.337Z,3.11
2022-12-20T19:49:27.582Z,3.14
2022-12-20T19:54:31.000Z,3.17
2022-12-20T19:59:34.290Z,3.21
2022-12-20T20:04:37.587Z,3.23
2022-12-20T20:09:40.943Z,3.27
2022-12-20T20:14:44.247Z,3.32
2022-12-20T20:19:49.153Z,3.36
2022-12-20T20:24:53.915Z,3.40
2022-12-20T20:29:58.024Z,3.42
2022-12-20T20:35:01.771Z,3.46
2022-12-20T20:40:06.056Z,3.50
2022-12-20T20:45:09.981Z,3.50
2022-12-20T20:50:14.003Z,3.49
2022-12-20T20:55:18.591Z,3.48
2022-12-20T21:00:22.447Z,3.47
2022-12-20T21:10:50.718Z,3.46
2022-12-20T21:15:54.328Z,3.46
2022-12-20T21:20:57.996Z,3.48
2022-12-20T21:26:01.349Z,3.50
2022-12-20T21:31:09.349Z,3.51
2022-12-20T21:36:18.251Z,3.54
2022-12-20T21:41:23.893Z,3.55
2022-12-20T21:46:29.785Z,3.56
2022-12-20T21:51:35.017Z,3.56
2022-12-20T21:56:38.662Z,3.56
2022-12-20T22:01:42.882Z,3.53
2022-12-20T22:06:46.374Z,3.51
2022-12-20T22:11:49.743Z,3.49
2022-12-20T22:16:55.048Z,3.46
2022-12-20T22:21:58.888Z,3.44
2022-12-20T22:27:07.738Z,3.42
2022-12-20T22:32:14.529Z,3.40
2022-12-20T22:37:18.356Z,3.39
2022-12-20T22:42:21.936Z,3.39
2022-12-20T22:52:46.323Z,3.37
2022-12-20T22:57:49.542Z,3.36
2022-12-20T23:02:52.853Z,3.36
2022-12-20T23:07:56.556Z,3.34
2022-12-20T23:13:18.420Z,3.33
2022-12-20T23:18:21.664Z,3.33
2022-12-20T23:23:24.914Z,3.33
2022-12-20T23:28:28.066Z,3.32
2022-12-20T23:33:31.794Z,3.32
2022-12-20T23:38:38.550Z,3.33
2022-12-20T23:43:42.478Z,3.34
2022-12-20T23:48:46.183Z,3.34
2022-12-20T23:53:52.496Z,3.36
2022-12-20T23:58:56.781Z,3.37
